WBKKWBKS

Guest
Details From WBKK - Kota Kinabalu Intl
To WBKS - Sandakan
Flight Number -
Tags generated
Created
Modified
Stats Distance 125 nm / 231 km
Max Altitude 15,500 ft / 4,724 m
Waypoints 4
Social Downloads 5
Likes 0
Share VATSIM

Download

Looking for another format? Having issues loading an existing format? Contact us
Advertisement - Login to hide

Notes

Basic altitude profile: - Ascent Rate: 2500ft/min - Ascent Speed: 250kts - Cruise Altitude: 35000ft - Cruise Speed: 420kts - Descent Rate: 1500ft/min - Descent Speed: 250kts Options: - Use NATs: yes - Use PACOTS: yes - Use low airways: yes - Use high airways: yes

Route

WBKK VJN A341 VSN WBKS

ID Type Via Altitude Latitude Longitude Leg Dist Tot Dist Heading (true) Name
O WBKK APT - 0 ft / 0 m 5.93721˚ 116.05118˚ - 0 nm - Kota Kinabalu Intl
VJN VOR - 900 ft / 274 m 5.89967˚ 116.02994˚ 2 nm 2 nm 209° / 209° KOTA KINABALU VOR-DME
VSN VOR A341 (AWY-LO) 15,500 ft / 4,724 m 5.90606˚ 118.06831˚ 121 nm 124 nm 90° / 90° SANDAKAN VOR-DME
O WBKS APT - 0 ft / 0 m 5.90090˚ 118.05949˚ 0 nm 124 nm 240° / 240° Sandakan

Altitude Profile

Advertisement - Login to hide

WBKK

Details ICAO WBKK (BKI)
Name Kota Kinabalu Intl
Region Brunei and Malaysia
Timezone Asia/Kuching (UTC+8.0)
Stats Elevation 10 ft / 3 m (AMSL)
Location 5.937208° 116.051181°
Runways 1
Magnetic Variation 0.409° W

METAR

WBKK 181230Z 15004KT 100V190 9999 FEW014 SCT040 BKN270 26/24 Q1008 NOSIG

Decode

TAF

TAF WBKK 181100Z 1812/1912 11007KT 9999 FEW012 TEMPO 1813/1817 5000 RA FEW012 FEW016CB SCT035

Decode

Departure Runways

ID Width Length Bearing (true) Bearing (mag) Surface Threshold Offset Overrun Length
02 150 ft / 46 m 9,836 ft / 2,998 m 22.73° 23.14° Asphalt 1,600 ft / 488 m 0 ft / 0 m
20 150 ft / 46 m 9,836 ft / 2,998 m 202.73° 203.14° Asphalt 200 ft / 61 m 0 ft / 0 m

WBKS

Details ICAO WBKS (SDK)
Name Sandakan
Region Brunei and Malaysia
Timezone Asia/Kuching (UTC+8.0)
Stats Elevation 46 ft / 14 m (AMSL)
Location 5.900897° 118.059486°
Runways 1
Magnetic Variation 0.505° W

METAR

WBKS 181200Z 35006KT 320V030 9999 SCT015 FEW016CB SCT140 BKN280 28/25 Q1007

Decode

TAF

TAF WBKS 180500Z 1806/1906 28008KT 9999 SCT016 TEMPO 1809/1813 4000 TSRA FEW010 FEW016CB SCT040

Decode

Destination Runways

ID Width Length Bearing (true) Bearing (mag) Surface Threshold Offset Overrun Length
08 151 ft / 46 m 7,010 ft / 2,137 m 80.56° 81.06° Asphalt 0 ft / 0 m 198 ft / 60 m
26 151 ft / 46 m 7,010 ft / 2,137 m 260.56° 261.06° Asphalt 0 ft / 0 m 198 ft / 60 m

Approach Navaids

Runway Type Ident Frequency Range Bearing (true) Bearing (mag) Slope Elevation
08 Localiser ISKN 109.30 MHz 18 nm / 33 km 80.48° 80.98° - 46 ft / 14 m (AMSL)
08 Glidescope ISKN 109.30 MHz 10 nm / 19 km 80.56° 81.07° 3.00° 46 ft / 14 m (AMSL)
08 DME ISKN 109.30 MHz 18 nm / 33 km - - - 46 ft / 14 m (AMSL)

Popular Alternatives